createdAt,value
2018-09-02T00:01:17.096Z,98720.18
2018-09-02T00:03:48.419Z,98718.39
2018-09-02T00:06:18.480Z,98720.15
2018-09-02T00:08:50.201Z,98716.41
2018-09-02T00:11:20.546Z,98722.41
2018-09-02T00:13:51.670Z,98721.67
2018-09-02T00:16:23.708Z,98728.89
2018-09-02T00:18:54.424Z,98724.47
2018-09-02T00:21:25.842Z,98723.10
2018-09-02T00:23:55.889Z,98717.95
2018-09-02T00:26:29.427Z,98706.19
2018-09-02T00:29:00.880Z,98710.13
2018-09-02T00:31:32.141Z,98705.25
2018-09-02T00:34:04.589Z,98707.98
2018-09-02T00:36:36.018Z,98706.20
2018-09-02T00:39:10.482Z,98700.75
2018-09-02T00:41:41.010Z,98698.38
2018-09-02T00:44:12.708Z,98706.20
2018-09-02T00:46:44.007Z,98696.30
2018-09-02T00:49:16.094Z,98706.58
2018-09-02T00:51:47.686Z,98700.92
2018-09-02T00:54:18.176Z,98703.17
2018-09-02T00:56:49.894Z,98703.94
2018-09-02T00:59:19.948Z,98699.14
2018-09-02T01:01:51.255Z,98693.41
2018-09-02T01:04:22.518Z,98695.56
2018-09-02T01:06:52.517Z,98690.63
2018-09-02T01:09:24.018Z,98686.11
2018-09-02T01:11:54.118Z,98684.49
2018-09-02T01:14:25.069Z,98685.16
2018-09-02T01:16:56.079Z,98679.84
2018-09-02T01:19:26.470Z,98677.58
2018-09-02T01:21:57.307Z,98682.89
2018-09-02T01:24:27.756Z,98680.26
2018-09-02T01:26:58.206Z,98675.40
2018-09-02T01:29:29.785Z,98675.68
2018-09-02T01:32:01.060Z,98686.29
2018-09-02T01:34:35.192Z,98680.50
2018-09-02T01:37:05.720Z,98676.23
2018-09-02T01:39:36.299Z,98686.59
2018-09-02T01:42:07.421Z,98678.23
2018-09-02T01:44:38.240Z,98679.55
2018-09-02T01:47:10.095Z,98676.20
2018-09-02T01:49:41.911Z,98678.34
2018-09-02T01:52:13.188Z,98677.68
2018-09-02T01:54:43.645Z,98676.13
2018-09-02T01:57:14.484Z,98675.55
2018-09-02T01:59:46.533Z,98671.33
2018-09-02T02:02:16.976Z,98673.30
2018-09-02T02:04:47.541Z,98662.16
2018-09-02T02:07:18.568Z,98665.34
2018-09-02T02:09:50.317Z,98664.23
2018-09-02T02:12:21.011Z,98659.13
2018-09-02T02:14:58.348Z,98663.48
2018-09-02T02:17:39.295Z,98670.75
2018-09-02T02:20:09.615Z,98669.98
2018-09-02T02:22:41.933Z,98668.88
2018-09-02T02:25:12.014Z,98666.47
2018-09-02T02:27:43.150Z,98662.16
2018-09-02T02:30:15.235Z,98665.73
2018-09-02T02:32:45.752Z,98663.00
2018-09-02T02:35:16.424Z,98667.70
2018-09-02T02:37:47.785Z,98658.39
2018-09-02T02:40:18.263Z,98666.87
2018-09-02T02:42:50.335Z,98664.97
2018-09-02T02:45:21.390Z,98666.39
2018-09-02T02:47:52.294Z,98660.14
2018-09-02T02:50:22.415Z,98656.88
2018-09-02T02:52:57.944Z,98650.19
2018-09-02T02:55:28.392Z,98650.08
2018-09-02T02:57:59.487Z,98647.06
2018-09-02T03:00:30.734Z,98640.65
2018-09-02T03:03:01.527Z,98639.86
2018-09-02T03:05:32.614Z,98635.91
2018-09-02T03:08:03.704Z,98632.13
2018-09-02T03:10:35.792Z,98627.72
2018-09-02T03:13:06.964Z,98630.35
2018-09-02T03:15:38.212Z,98623.83
2018-09-02T03:18:09.878Z,98629.27
2018-09-02T03:20:40.219Z,98633.94
2018-09-02T03:23:10.245Z,98630.08
2018-09-02T03:25:42.303Z,98632.13
2018-09-02T03:28:14.790Z,98630.27
2018-09-02T03:30:45.759Z,98629.27
2018-09-02T03:33:18.034Z,98632.62
2018-09-02T03:35:48.746Z,98628.70
2018-09-02T03:38:18.972Z,98634.88
2018-09-02T03:40:51.434Z,98628.31
2018-09-02T03:43:22.490Z,98626.61
2018-09-02T03:45:53.724Z,98624.15
2018-09-02T03:48:23.806Z,98626.17
2018-09-02T03:50:55.540Z,98622.23
2018-09-02T03:53:25.956Z,98621.39
2018-09-02T03:55:57.057Z,98619.20
2018-09-02T03:58:27.128Z,98627.23
2018-09-02T04:00:58.442Z,98623.22
2018-09-02T04:03:28.575Z,98619.17
2018-09-02T04:05:59.764Z,98625.00
2018-09-02T04:08:31.781Z,98628.37
2018-09-02T04:11:02.894Z,98626.52
2018-09-02T04:13:33.017Z,98625.54
2018-09-02T04:16:08.981Z,98629.27
2018-09-02T04:18:39.706Z,98622.95
2018-09-02T04:21:11.170Z,98623.57
2018-09-02T04:23:42.407Z,98626.32
2018-09-02T04:26:12.952Z,98629.17
2018-09-02T04:28:45.346Z,98627.72
2018-09-02T04:31:15.826Z,98630.02
2018-09-02T04:33:47.420Z,98626.36
2018-09-02T04:36:17.970Z,98624.05
2018-09-02T04:38:48.972Z,98623.88
2018-09-02T04:41:19.392Z,98621.33
2018-09-02T04:43:53.506Z,98624.80
2018-09-02T04:46:27.104Z,98622.11
2018-09-02T04:48:57.319Z,98620.66
2018-09-02T04:51:28.949Z,98623.28
2018-09-02T04:53:59.116Z,98623.81
2018-09-02T04:56:29.562Z,98620.19
2018-09-02T04:59:00.879Z,98620.80
2018-09-02T05:01:31.193Z,98619.09
2018-09-02T05:04:01.899Z,98614.55
2018-09-02T05:06:33.054Z,98621.88
2018-09-02T05:09:05.456Z,98619.87
2018-09-02T05:11:35.616Z,98614.62
2018-09-02T05:14:06.081Z,98618.16
2018-09-02T05:16:37.816Z,98617.85
2018-09-02T05:19:09.482Z,98625.05
2018-09-02T05:21:39.498Z,98629.30
2018-09-02T05:24:10.072Z,98623.41
2018-09-02T05:26:41.933Z,98623.34
2018-09-02T05:29:13.042Z,98625.36
2018-09-02T05:31:45.814Z,98622.56
2018-09-02T05:34:15.862Z,98619.16
2018-09-02T05:36:46.397Z,98619.16
2018-09-02T05:39:19.003Z,98625.50
2018-09-02T05:41:49.429Z,98617.55
2018-09-02T05:44:20.760Z,98627.80
2018-09-02T05:46:53.868Z,98621.53
2018-09-02T05:49:25.827Z,98623.98
2018-09-02T05:51:58.278Z,98618.34
2018-09-02T05:54:31.704Z,98623.89
2018-09-02T05:57:04.077Z,98618.32
2018-09-02T05:59:34.997Z,98617.63
2018-09-02T06:02:05.869Z,98612.66
2018-09-02T06:04:36.330Z,98613.89
2018-09-02T06:07:07.702Z,98610.68
2018-09-02T06:09:42.564Z,98617.86
2018-09-02T06:12:13.678Z,98616.73
2018-09-02T06:14:45.333Z,98621.26
2018-09-02T06:17:17.097Z,98619.88
2018-09-02T06:19:47.397Z,98619.88
2018-09-02T06:22:17.840Z,98618.69
2018-09-02T06:24:48.501Z,98619.33
2018-09-02T06:27:19.143Z,98606.95
2018-09-02T06:29:54.054Z,98606.41
2018-09-02T06:32:26.031Z,98609.86
2018-09-02T06:34:56.373Z,98611.06
2018-09-02T06:37:30.967Z,98613.53
2018-09-02T06:40:03.304Z,98617.27
2018-09-02T06:42:34.564Z,98618.44
2018-09-02T06:45:09.374Z,98621.95
2018-09-02T06:47:40.184Z,98619.80
2018-09-02T06:50:11.775Z,98620.84
2018-09-02T06:52:46.246Z,98616.82
2018-09-02T06:55:16.551Z,98619.76
2018-09-02T06:57:47.829Z,98622.97
2018-09-02T07:00:19.487Z,98618.45
2018-09-02T07:02:50.105Z,98619.36
2018-09-02T07:05:20.561Z,98621.20
2018-09-02T07:07:51.080Z,98621.52
2018-09-02T07:10:21.201Z,98627.16
2018-09-02T07:12:51.633Z,98623.63
2018-09-02T07:15:23.109Z,98622.88
2018-09-02T07:17:53.308Z,98627.29
2018-09-02T07:20:23.605Z,98626.66
2018-09-02T07:22:55.651Z,98629.92
2018-09-02T07:25:26.820Z,98620.91
2018-09-02T07:27:57.021Z,98630.52
2018-09-02T07:30:27.739Z,98628.28
2018-09-02T07:32:58.919Z,98630.11
2018-09-02T07:35:30.315Z,98629.27
2018-09-02T07:38:00.509Z,98631.82
2018-09-02T07:40:32.913Z,98631.44
2018-09-02T07:43:03.681Z,98633.31
2018-09-02T07:45:33.758Z,98631.56
2018-09-02T07:48:05.351Z,98631.92
2018-09-02T07:50:35.431Z,98639.09
2018-09-02T07:53:05.827Z,98635.78
2018-09-02T07:55:37.066Z,98632.77
2018-09-02T07:58:07.780Z,98636.98
2018-09-02T08:00:38.990Z,98635.97
2018-09-02T08:03:11.922Z,98637.51
2018-09-02T08:05:42.530Z,98641.23
2018-09-02T08:08:13.911Z,98639.34
2018-09-02T08:10:45.138Z,98644.41
2018-09-02T08:13:17.534Z,98640.47
2018-09-02T08:15:50.349Z,98636.84
2018-09-02T08:18:23.741Z,98638.87
2018-09-02T08:20:54.586Z,98638.70
2018-09-02T08:23:26.925Z,98632.97
2018-09-02T08:25:58.422Z,98635.77
2018-09-02T08:28:29.236Z,98640.11
2018-09-02T08:31:00.281Z,98645.61
2018-09-02T08:33:31.879Z,98643.25
2018-09-02T08:36:02.414Z,98643.19
2018-09-02T08:38:33.582Z,98640.93
2018-09-02T08:41:05.048Z,98647.31
2018-09-02T08:43:36.471Z,98644.92
2018-09-02T08:46:07.844Z,98641.18
2018-09-02T08:48:39.283Z,98636.02
2018-09-02T08:51:11.015Z,98635.09
2018-09-02T08:53:42.465Z,98635.95
2018-09-02T08:56:16.573Z,98626.87
2018-09-02T08:58:47.360Z,98620.20
2018-09-02T09:01:19.414Z,98622.09
2018-09-02T09:03:50.300Z,98611.73
2018-09-02T09:06:22.262Z,98617.01
2018-09-02T09:08:54.123Z,98611.98
2018-09-02T09:11:26.670Z,98606.73
2018-09-02T09:13:57.537Z,98617.46
2018-09-02T09:16:28.627Z,98606.42
2018-09-02T09:19:00.010Z,98601.27
2018-09-02T09:21:31.664Z,98603.05
2018-09-02T09:24:03.657Z,98601.95
2018-09-02T09:26:34.927Z,98605.52
2018-09-02T09:29:05.794Z,98607.78
2018-09-02T09:31:43.544Z,98604.28
2018-09-02T09:34:13.652Z,98603.59
2018-09-02T09:36:43.950Z,98606.50
2018-09-02T09:39:15.934Z,98612.48
2018-09-02T09:41:46.826Z,98615.37
2018-09-02T09:44:17.154Z,98621.89
2018-09-02T09:46:48.694Z,98625.66
2018-09-02T09:49:21.199Z,98628.19
2018-09-02T09:51:53.021Z,98626.78
2018-09-02T09:54:23.125Z,98627.59
2018-09-02T09:56:54.248Z,98633.34
2018-09-02T09:59:24.447Z,98636.73
2018-09-02T10:01:56.016Z,98633.30
2018-09-02T10:04:26.128Z,98630.06
2018-09-02T10:06:57.280Z,98622.25
2018-09-02T10:09:27.707Z,98615.96
2018-09-02T10:12:01.918Z,98627.23
2018-09-02T10:14:34.409Z,98628.67
2018-09-02T10:17:08.342Z,98617.19
2018-09-02T10:19:40.878Z,98621.06
2018-09-02T10:22:13.560Z,98617.86
2018-09-02T10:24:45.325Z,98614.13
2018-09-02T10:27:16.524Z,98603.84
2018-09-02T10:29:51.283Z,98609.74
2018-09-02T10:32:23.658Z,98604.24
2018-09-02T10:34:53.775Z,98601.12
2018-09-02T10:37:24.124Z,98595.61
2018-09-02T10:39:54.608Z,98599.47
2018-09-02T10:42:25.233Z,98591.14
2018-09-02T10:44:56.527Z,98588.64
2018-09-02T10:47:27.971Z,98581.89
2018-09-02T10:49:58.182Z,98578.16
2018-09-02T10:52:32.315Z,98578.16
2018-09-02T10:55:03.285Z,98581.95
2018-09-02T10:57:35.132Z,98579.64
2018-09-02T11:00:08.086Z,98570.59
2018-09-02T11:02:41.591Z,98572.08
2018-09-02T11:05:12.321Z,98568.09
2018-09-02T11:07:43.986Z,98566.77
2018-09-02T11:10:16.640Z,98563.47
2018-09-02T11:12:47.783Z,98570.53
2018-09-02T11:15:20.621Z,98564.70
2018-09-02T11:17:54.189Z,98561.92
2018-09-02T11:20:25.177Z,98563.66
2018-09-02T11:22:56.808Z,98563.89
2018-09-02T11:25:28.467Z,98569.02
2018-09-02T11:27:59.371Z,98571.41
2018-09-02T11:30:30.284Z,98567.42
2018-09-02T11:33:01.882Z,98569.42
2018-09-02T11:35:32.481Z,98569.27
2018-09-02T11:38:04.033Z,98564.27
2018-09-02T11:40:35.093Z,98564.78
2018-09-02T11:43:05.611Z,98563.60
2018-09-02T11:45:36.607Z,98563.58
2018-09-02T11:48:07.483Z,98561.73
2018-09-02T11:50:39.164Z,98568.01
2018-09-02T11:53:10.408Z,98556.25
2018-09-02T11:55:42.285Z,98556.41
2018-09-02T11:58:12.819Z,98557.96
2018-09-02T12:00:43.075Z,98562.48
2018-09-02T12:03:15.827Z,98567.99
2018-09-02T12:05:47.557Z,98571.48
2018-09-02T12:08:17.711Z,98573.23
2018-09-02T12:10:48.302Z,98574.17
2018-09-02T12:13:22.629Z,98571.10
2018-09-02T12:15:52.688Z,98567.52
2018-09-02T12:18:24.476Z,98571.90
2018-09-02T12:20:57.076Z,98570.61
2018-09-02T12:23:28.406Z,98569.67
2018-09-02T12:25:59.512Z,98568.45
2018-09-02T12:28:31.592Z,98561.95
2018-09-02T12:31:02.289Z,98557.68
2018-09-02T12:33:32.935Z,98555.13
2018-09-02T12:36:05.714Z,98556.70
2018-09-02T12:38:38.055Z,98558.15
2018-09-02T12:41:09.485Z,98554.50
2018-09-02T12:43:42.521Z,98556.48
2018-09-02T12:46:13.723Z,98562.35
2018-09-02T12:48:43.841Z,98558.09
2018-09-02T12:51:15.707Z,98548.26
2018-09-02T12:53:46.712Z,98540.50
2018-09-02T12:56:18.225Z,98553.55
2018-09-02T12:58:54.115Z,98543.16
2018-09-02T13:01:24.564Z,98544.85
2018-09-02T13:03:54.634Z,98551.07
2018-09-02T13:06:26.422Z,98547.63
2018-09-02T13:08:57.424Z,98545.49
2018-09-02T13:11:28.516Z,98543.52
2018-09-02T13:13:59.209Z,98538.09
2018-09-02T13:16:29.436Z,98529.98
2018-09-02T13:19:00.923Z,98537.17
2018-09-02T13:21:31.809Z,98529.83
2018-09-02T13:24:04.303Z,98524.84
2018-09-02T13:26:36.434Z,98521.64
2018-09-02T13:29:08.539Z,98513.31
2018-09-02T13:31:39.724Z,98510.17
2018-09-02T13:34:10.623Z,98522.37
2018-09-02T13:36:42.805Z,98521.71
2018-09-02T13:39:18.157Z,98516.11
2018-09-02T13:41:50.270Z,98520.07
2018-09-02T13:44:22.882Z,98519.07
2018-09-02T13:46:53.624Z,98522.37
2018-09-02T13:49:26.392Z,98521.24
2018-09-02T13:51:57.915Z,98515.44
2018-09-02T13:54:29.464Z,98516.04
2018-09-02T13:56:59.943Z,98516.91
2018-09-02T13:59:31.150Z,98510.22
2018-09-02T14:02:01.378Z,98506.72
2018-09-02T14:04:32.501Z,98490.23
2018-09-02T14:07:02.977Z,98495.03
2018-09-02T14:09:35.214Z,98493.51
2018-09-02T14:12:05.784Z,98495.61
2018-09-02T14:14:36.224Z,98492.39
2018-09-02T14:17:07.224Z,98503.80
2018-09-02T14:19:37.512Z,98495.20
2018-09-02T14:22:08.049Z,98494.52
2018-09-02T14:24:39.705Z,98502.55
2018-09-02T14:27:11.607Z,98502.59
2018-09-02T14:29:43.168Z,98507.00
2018-09-02T14:32:13.900Z,98506.17
2018-09-02T14:34:46.606Z,98509.13
2018-09-02T14:37:18.992Z,98505.79
2018-09-02T14:39:51.126Z,98503.52
2018-09-02T14:42:24.941Z,98503.05
2018-09-02T14:44:55.979Z,98502.16
2018-09-02T14:47:27.051Z,98488.91
2018-09-02T14:50:00.658Z,98495.94
2018-09-02T14:52:32.145Z,98492.55
2018-09-02T14:55:03.583Z,98489.64
2018-09-02T14:57:34.133Z,98498.76
2018-09-02T15:00:07.721Z,98498.44
2018-09-02T15:02:40.935Z,98492.08
2018-09-02T15:05:11.333Z,98496.34
2018-09-02T15:07:42.493Z,98487.58
2018-09-02T15:10:13.389Z,98493.54
2018-09-02T15:12:43.577Z,98487.62
2018-09-02T15:15:13.779Z,98490.28
2018-09-02T15:17:43.935Z,98482.79
2018-09-02T15:20:14.327Z,98490.55
2018-09-02T15:22:44.537Z,98485.31
2018-09-02T15:25:17.037Z,98489.74
2018-09-02T15:27:47.543Z,98485.17
2018-09-02T15:30:17.779Z,98488.58
2018-09-02T15:32:50.141Z,98482.45
2018-09-02T15:35:21.503Z,98488.42
2018-09-02T15:37:51.642Z,98486.42
2018-09-02T15:40:23.007Z,98483.20
2018-09-02T15:42:59.857Z,98477.99
2018-09-02T15:45:32.525Z,98474.91
2018-09-02T15:48:04.174Z,98473.95
2018-09-02T15:50:35.136Z,98473.92
2018-09-02T15:53:07.336Z,98476.19
2018-09-02T15:55:38.458Z,98476.15
2018-09-02T15:58:10.556Z,98479.41
2018-09-02T16:00:42.744Z,98478.92
2018-09-02T16:03:15.154Z,98469.53
2018-09-02T16:05:46.836Z,98464.41
2018-09-02T16:08:18.153Z,98464.78
2018-09-02T16:10:49.532Z,98471.01
2018-09-02T16:13:20.122Z,98463.94
2018-09-02T16:15:51.909Z,98462.31
2018-09-02T16:18:22.393Z,98466.41
2018-09-02T16:20:52.944Z,98466.89
2018-09-02T16:23:23.511Z,98471.53
2018-09-02T16:25:56.054Z,98461.87
2018-09-02T16:28:27.698Z,98466.89
2018-09-02T16:30:59.064Z,98466.47
2018-09-02T16:33:29.458Z,98460.72
2018-09-02T16:36:00.566Z,98457.38
2018-09-02T16:38:31.876Z,98459.30
2018-09-02T16:41:02.588Z,98457.07
2018-09-02T16:43:33.758Z,98458.92
2018-09-02T16:46:04.870Z,98461.13
2018-09-02T16:48:36.118Z,98457.49
2018-09-02T16:51:06.648Z,98452.97
2018-09-02T16:53:38.850Z,98454.89
2018-09-02T16:56:10.286Z,98454.91
2018-09-02T16:58:43.035Z,98454.34
2018-09-02T17:01:14.432Z,98455.53
2018-09-02T17:03:48.458Z,98453.21
2018-09-02T17:06:20.361Z,98455.09
2018-09-02T17:08:50.515Z,98454.28
2018-09-02T17:11:21.136Z,98459.81
2018-09-02T17:13:53.499Z,98452.56
2018-09-02T17:16:24.978Z,98457.36
2018-09-02T17:19:01.210Z,98455.85
2018-09-02T17:21:32.292Z,98455.72
2018-09-02T17:24:02.440Z,98451.83
2018-09-02T17:26:33.224Z,98451.67
2018-09-02T17:29:05.740Z,98452.89
2018-09-02T17:31:38.409Z,98455.77
2018-09-02T17:34:11.357Z,98460.86
2018-09-02T17:36:42.440Z,98454.27
2018-09-02T17:39:13.345Z,98451.19
2018-09-02T17:41:43.987Z,98457.31
2018-09-02T17:44:16.070Z,98454.48
2018-09-02T17:46:47.267Z,98458.27
2018-09-02T17:49:20.305Z,98455.89
2018-09-02T17:51:51.185Z,98450.06
2018-09-02T17:54:22.343Z,98455.23
2018-09-02T17:56:54.454Z,98457.69
2018-09-02T17:59:26.489Z,98459.84
2018-09-02T18:01:58.571Z,98463.59
2018-09-02T18:04:30.312Z,98461.14
2018-09-02T18:07:02.496Z,98460.41
2018-09-02T18:09:34.663Z,98461.94
2018-09-02T18:12:04.865Z,98462.39
2018-09-02T18:14:37.409Z,98466.73
2018-09-02T18:17:09.296Z,98465.21
2018-09-02T18:19:40.677Z,98469.24
2018-09-02T18:22:12.320Z,98467.67
2018-09-02T18:24:42.723Z,98474.63
2018-09-02T18:27:13.797Z,98470.10
2018-09-02T18:29:48.221Z,98472.18
2018-09-02T18:32:19.246Z,98480.16
2018-09-02T18:34:49.531Z,98473.88
2018-09-02T18:37:19.879Z,98477.73
2018-09-02T18:39:51.205Z,98479.98
2018-09-02T18:42:21.592Z,98469.24
2018-09-02T18:44:51.812Z,98473.02
2018-09-02T18:47:22.054Z,98472.73
2018-09-02T18:49:54.419Z,98474.63
2018-09-02T18:52:25.710Z,98480.52
2018-09-02T18:54:56.739Z,98476.20
2018-09-02T18:57:27.935Z,98474.25
2018-09-02T18:59:59.106Z,98477.05
2018-09-02T19:02:29.957Z,98469.16
2018-09-02T19:05:00.327Z,98474.34
2018-09-02T19:07:32.662Z,98479.52
2018-09-02T19:10:14.501Z,98479.98
2018-09-02T19:12:47.524Z,98485.16
2018-09-02T19:15:21.055Z,98484.40
2018-09-02T19:17:55.814Z,98485.80
2018-09-02T19:20:33.140Z,98485.05
2018-09-02T19:23:04.068Z,98485.54
2018-09-02T19:25:35.010Z,98481.59
2018-09-02T19:28:09.086Z,98470.94
2018-09-02T19:30:41.275Z,98474.98
2018-09-02T19:33:14.632Z,98478.09
2018-09-02T19:35:46.019Z,98472.23
2018-09-02T19:38:16.870Z,98471.13
2018-09-02T19:40:47.000Z,98471.04
2018-09-02T19:43:19.085Z,98468.70
2018-09-02T19:45:49.731Z,98465.36
2018-09-02T19:48:20.883Z,98457.38
2018-09-02T19:50:51.763Z,98456.92
2018-09-02T19:53:22.251Z,98454.95
2018-09-02T19:55:53.382Z,98448.09
2018-09-02T19:58:23.650Z,98449.88
2018-09-02T20:00:53.844Z,98445.16
2018-09-02T20:03:26.641Z,98442.15
2018-09-02T20:05:57.707Z,98441.39
2018-09-02T20:08:28.567Z,98435.02
2018-09-02T20:10:59.022Z,98438.97
2018-09-02T20:13:29.501Z,98438.12
2018-09-02T20:16:00.935Z,98438.67
2018-09-02T20:18:31.082Z,98436.98
2018-09-02T20:21:02.418Z,98432.09
2018-09-02T20:23:32.658Z,98428.99
2018-09-02T20:26:03.058Z,98428.44
2018-09-02T20:28:33.406Z,98426.45
2018-09-02T20:31:03.952Z,98425.81
2018-09-02T20:33:35.078Z,98425.14
2018-09-02T20:36:06.463Z,98428.36
2018-09-02T20:38:36.641Z,98426.52
2018-09-02T20:41:06.970Z,98429.87
2018-09-02T20:43:37.128Z,98432.24
2018-09-02T20:46:07.316Z,98431.55
2018-09-02T20:48:37.528Z,98428.61
2018-09-02T20:51:08.483Z,98432.88
2018-09-02T20:53:38.550Z,98432.56
2018-09-02T20:56:08.792Z,98431.63
2018-09-02T20:58:39.150Z,98428.06
2018-09-02T21:01:09.326Z,98427.77
2018-09-02T21:03:39.554Z,98430.98
2018-09-02T21:06:10.013Z,98435.58
2018-09-02T21:08:40.454Z,98437.56
2018-09-02T21:11:11.597Z,98441.98
2018-09-02T21:13:41.846Z,98438.67
2018-09-02T21:16:14.835Z,98434.94
2018-09-02T21:18:46.473Z,98434.81
2018-09-02T21:21:17.602Z,98425.44
2018-09-02T21:23:49.180Z,98427.69
2018-09-02T21:26:19.649Z,98429.94
2018-09-02T21:28:51.639Z,98433.88
2018-09-02T21:31:22.678Z,98428.53
2018-09-02T21:33:56.398Z,98426.75
2018-09-02T21:36:34.348Z,98427.86
2018-09-02T21:39:07.030Z,98430.31
2018-09-02T21:41:37.597Z,98425.23
2018-09-02T21:44:32.944Z,98427.69
2018-09-02T21:47:17.509Z,98419.41
2018-09-02T21:49:52.899Z,98414.36
2018-09-02T21:52:25.101Z,98401.08
2018-09-02T21:54:58.586Z,98396.84
2018-09-02T21:57:37.903Z,98395.36
2018-09-02T22:00:12.623Z,98392.34
2018-09-02T22:02:56.362Z,98388.95
2018-09-02T22:05:31.110Z,98385.13
2018-09-02T22:08:07.791Z,98380.69
2018-09-02T22:10:39.766Z,98378.27
2018-09-02T22:13:38.102Z,98377.03
2018-09-02T22:16:14.654Z,98373.94
2018-09-02T22:18:45.283Z,98368.67
2018-09-02T22:21:20.016Z,98356.93
2018-09-02T22:23:50.827Z,98359.39
2018-09-02T22:26:23.132Z,98359.48
2018-09-02T22:28:53.766Z,98357.31
2018-09-02T22:31:25.932Z,98364.45
2018-09-02T22:33:56.580Z,98358.62
2018-09-02T22:36:28.106Z,98349.25
2018-09-02T22:39:00.809Z,98344.25
2018-09-02T22:41:31.345Z,98338.36
2018-09-02T22:44:02.636Z,98336.92
2018-09-02T22:46:34.043Z,98337.05
2018-09-02T22:49:04.855Z,98335.14
2018-09-02T22:51:38.489Z,98334.31
2018-09-02T22:54:10.059Z,98330.08
2018-09-02T22:56:40.920Z,98318.89
2018-09-02T22:59:11.587Z,98312.05
2018-09-02T23:01:42.049Z,98308.66
2018-09-02T23:04:14.269Z,98307.17
2018-09-02T23:06:45.265Z,98309.13
2018-09-02T23:09:15.845Z,98305.64
2018-09-02T23:11:48.295Z,98293.27
2018-09-02T23:14:18.995Z,98294.03
2018-09-02T23:16:50.919Z,98288.18
2018-09-02T23:19:21.111Z,98297.38
2018-09-02T23:21:52.354Z,98295.52
2018-09-02T23:24:23.617Z,98312.89
2018-09-02T23:26:54.454Z,98303.39
2018-09-02T23:29:25.862Z,98306.67
2018-09-02T23:31:57.026Z,98311.84
2018-09-02T23:34:27.717Z,98316.80
2018-09-02T23:36:59.023Z,98309.30
2018-09-02T23:39:29.119Z,98304.31
2018-09-02T23:41:59.143Z,98302.90
2018-09-02T23:44:29.332Z,98300.96
2018-09-02T23:46:59.762Z,98297.94
2018-09-02T23:49:30.758Z,98301.13
2018-09-02T23:52:00.816Z,98288.73
2018-09-02T23:54:31.706Z,98287.98
2018-09-02T23:57:01.813Z,98295.88
2018-09-02T23:59:31.954Z,98298.05
